Messwerte Tahoua

Temperatur

Temperatur
°C
1618826400 11.00 11.00 37
1618830000 12.00 12.00 38
1618833600 13.00 13.00 39
1618837200 14.00 14.00 40
1618840800 15.00 15.00 41
1618844400 16.00 16.00 41
1618848000 17.00 17.00 41
1618851600 18.00 18.00 40
1618855200 19.00 19.00 40
1618858800 20.00 20.00 38
1618862400 21.00 21.00 37
1618866000 22.00 22.00 35
1618869600 23.00 23.00
1618873200 0.00 0.00
1618876800 1.00 1.00 33
1618880400 2.00 2.00
1618884000 3.00 3.00
1618887600 4.00 4.00
1618891200 5.00 5.00
1618894800 6.00 6.00 30
1618898400 7.00 7.00 30
1618902000 8.00 8.00 33
1618905600 9.00 9.00 34
1618909200 10.00 10.00 36

Aktuellste Messwerte

Wettercharakter
Wetter: recht sonnig
Temperatur
36 °C
Feuchtigkeit
25 %
Wind
20 km/hWindrichtung: West
Luftdruck
1010 hPa
Messzeit: 20. April 2021, 10.00Datenquelle: METAR

Weitere Messstationen in der Nähe

Messstation Temperatur Entfernung
Maradi 35 °C 253 km
Niamey 37 °C 367 km
Agadez 37 °C 371 km
Zinder 36 °C 420 km
Kano 33 °C 475 km

Wind

Windrichtung Böen Mittelwind
° km/h km/h
1618826400 11.00 10.00 - 11.00 280° 10
1618830000 12.00 11.00 - 12.00 180° 10
1618833600 13.00 12.00 - 13.00 180° 10
1618837200 14.00 13.00 - 14.00 180° 5
1618840800 15.00 14.00 - 15.00 180° 5
1618844400 16.00 15.00 - 16.00 240° 10
1618848000 17.00 16.00 - 17.00 260° 10
1618851600 18.00 17.00 - 18.00 240° 15
1618855200 19.00 18.00 - 19.00 220° 10
1618858800 20.00 19.00 - 20.00 220° 5
1618862400 21.00 20.00 - 21.00 240° 5
1618866000 22.00 21.00 - 22.00 0
1618869600 23.00 22.00 - 23.00
1618873200 0.00 23.00 - 0.00
1618876800 1.00 0.00 - 1.00 0
1618880400 2.00 1.00 - 2.00
1618884000 3.00 2.00 - 3.00
1618887600 4.00 3.00 - 4.00
1618891200 5.00 4.00 - 5.00
1618894800 6.00 5.00 - 6.00 0
1618898400 7.00 6.00 - 7.00 200° 5
1618902000 8.00 7.00 - 8.00 220° 5
1618905600 9.00 8.00 - 9.00 240° 20
1618909200 10.00 9.00 - 10.00 260° 20

Ihre Wetterstation

Fehlt Ihre Wetterstation auf unserem Portal?

Schreiben Sie an network@meteonews.ch

Klima

Wann ist es am wärmsten? Wann regnet es am wenigsten? Unsere Klimadaten geben Auskunft.